< < Back
Terminal Aerodrome Forecast


Current Version              Previous Versions:   1  2  3  4  5  6  7  8  9  

Terminal Aerodrome Forecast

512
FTUS42 KTAE 131120
TAFDHN
TAF
KDHN 131120Z 1312/1412 36010KT P6SM SKC
      TEMPO 1312/1316 36013G23KT
     FM132300 02004KT P6SM SKC=

Latest METAR

872
SAUS70 KWBC 131900 RRD
MTRDHN
METAR KDHN 131853Z 35009KT 10SM CLR 12/M11 A3036 RMK AO2 SLP281
T01221106


USA.gov is the U.S. government's official web portal to all federal, state and local government web resources and services.